.
WxDataArchive / Data Records for 2014-01-14
2014-01-13 January 2014 2014-01-15

Data Records for Tuesday, 14 January 2014

Time	Temp	Chill	HIndex	Humid	Dewpt	 Wind 	HiWind	WindDir	Rain 	Barom 
-----	----	-----	------	-----	-----	------	------	-------	-----	----- 
00:00	35.5	35.5	35.5	84	31.2	1	3	248	0.00	29.724 
00:05	35.5	35.5	35.5	84	31.2	2	4	248	0.00	29.724 
00:10	35.5	35.5	35.5	85	31.4	2	6	248	0.00	29.724 
00:15	35.2	35.2	35.2	85	31.2	1	3	292	0.00	29.725 
00:20	35.0	35.0	35.0	85	31.0	1	3	270	0.00	29.725 
00:25	34.9	34.9	34.9	85	30.9	1	3	270	0.00	29.725 
00:30	34.7	34.7	34.7	86	30.9	1	3	270	0.00	29.725 
00:35	34.6	34.6	34.6	86	30.9	1	5	248	0.00	29.725 
00:40	34.4	34.4	34.4	86	30.7	0	2	248	0.00	29.725 
00:45	34.3	34.3	34.3	87	30.8	0	2	248	0.00	29.724 
00:50	34.1	34.1	34.1	87	30.6	0	1	248	0.00	29.724 
00:55	34.0	34.0	34.0	87	30.5	0	2	248	0.00	29.724 
01:00	33.8	33.8	33.8	87	30.3	1	3	248	0.00	29.726 
01:05	33.7	33.7	33.7	87	30.3	0	2	248	0.00	29.726 
01:10	33.5	33.5	33.5	87	30.1	0	2	248	0.00	29.726 
01:15	33.4	33.4	33.4	88	30.2	0	1	248	0.00	29.727 
01:20	33.2	33.2	33.2	88	30.0	0	1	248	0.00	29.727 
01:25	33.1	33.1	33.1	88	29.9	0	1	248	0.00	29.727 
01:30	32.9	32.9	32.9	88	29.7	0	1	248	0.00	29.729 
01:35	32.7	32.7	32.7	88	29.5	0	0	---	0.00	29.729 
01:40	32.5	32.5	32.5	88	29.3	0	1	248	0.00	29.729 
01:45	32.4	32.4	32.4	88	29.3	0	1	248	0.00	29.734 
01:50	32.2	32.2	32.2	89	29.3	0	2	248	0.00	29.734 
01:55	32.4	32.4	32.4	89	29.5	0	2	248	0.00	29.734 
02:00	32.5	32.5	32.5	89	29.6	0	2	248	0.00	29.743 
02:05	32.7	32.7	32.7	90	30.1	1	3	248	0.00	29.743 
02:10	32.8	32.8	32.8	90	30.2	1	3	248	0.00	29.743 
02:15	32.9	32.9	32.9	90	30.3	1	3	248	0.00	29.744 
02:20	33.1	33.1	33.1	89	30.2	1	3	248	0.00	29.744 
02:25	33.1	33.1	33.1	89	30.2	1	4	248	0.00	29.744 
02:30	33.2	33.2	33.2	88	30.0	2	5	270	0.00	29.745 
02:35	33.2	33.2	33.2	87	29.8	2	6	270	0.00	29.745 
02:40	33.2	29.5	33.2	84	28.9	4	10	270	0.00	29.745 
02:45	33.2	33.2	33.2	82	28.3	3	7	270	0.00	29.756 
02:50	33.2	33.2	33.2	81	28.0	1	3	315	0.00	29.756 
02:55	33.2	33.2	33.2	81	28.0	2	8	292	0.00	29.756 
03:00	33.2	33.2	33.2	80	27.7	2	4	248	0.00	29.757 
03:05	33.2	33.2	33.2	79	27.4	1	5	248	0.00	29.757 
03:10	33.2	33.2	33.2	79	27.4	2	6	315	0.00	29.757 
03:15	33.1	33.1	33.1	79	27.3	1	3	270	0.00	29.759 
03:20	33.1	33.1	33.1	78	27.0	2	4	270	0.00	29.759 
03:25	32.9	32.9	32.9	78	26.8	2	5	270	0.00	29.759 
03:30	32.8	32.8	32.8	78	26.7	2	4	315	0.00	29.758 
03:35	32.7	32.7	32.7	78	26.6	2	5	315	0.00	29.758 
03:40	32.5	32.5	32.5	78	26.4	0	2	315	0.00	29.758 
03:45	32.5	32.5	32.5	79	26.7	0	2	315	0.00	29.759 
03:50	32.4	32.4	32.4	79	26.6	1	4	315	0.00	29.759 
03:55	32.4	32.4	32.4	79	26.6	1	4	270	0.00	29.759 
04:00	32.2	32.2	32.2	79	26.4	1	4	270	0.00	29.766 
04:05	32.1	32.1	32.1	80	26.6	1	4	270	0.00	29.766 
04:10	31.8	31.8	31.8	80	26.3	1	3	270	0.00	29.766 
04:15	31.5	31.5	31.5	80	26.1	1	4	270	0.00	29.772 
04:20	31.3	31.3	31.3	81	26.2	0	2	270	0.00	29.772 
04:25	31.0	31.0	31.0	81	25.9	0	1	270	0.00	29.772 
04:30	30.7	30.7	30.7	81	25.6	0	0	---	0.00	29.770 
04:35	30.4	30.4	30.4	81	25.3	0	1	270	0.00	29.770 
04:40	30.1	30.1	30.1	82	25.3	0	0	---	0.00	29.770 
04:45	29.8	29.8	29.8	82	25.0	0	0	---	0.00	29.775 
04:50	29.5	29.5	29.5	82	24.7	0	0	---	0.00	29.775 
04:55	29.3	29.3	29.3	83	24.8	0	0	---	0.00	29.775 
05:00	29.0	29.0	29.0	83	24.5	0	0	---	0.00	29.778 
05:05	28.8	28.8	28.8	84	24.6	0	0	---	0.00	29.778 
05:10	28.7	28.7	28.7	84	24.5	0	1	270	0.00	29.778 
05:15	28.7	28.7	28.7	85	24.8	0	1	270	0.00	29.787 
05:20	28.5	28.5	28.5	85	24.6	0	1	270	0.00	29.787 
05:25	28.4	28.4	28.4	85	24.5	0	0	---	0.00	29.787 
05:30	28.2	28.2	28.2	85	24.3	0	0	---	0.00	29.786 
05:35	28.1	28.1	28.1	86	24.5	0	0	---	0.00	29.786 
05:40	27.9	27.9	27.9	86	24.3	0	0	---	0.00	29.786 
05:45	27.8	27.8	27.8	86	24.2	0	0	---	0.00	29.783 
05:50	27.6	27.6	27.6	86	24.0	0	1	270	0.00	29.783 
05:55	27.6	27.6	27.6	87	24.2	0	0	---	0.00	29.783 
06:00	27.5	27.5	27.5	87	24.1	0	0	---	0.00	29.785 
06:05	27.2	27.2	27.2	87	23.9	0	0	---	0.00	29.785 
06:10	26.9	26.9	26.9	87	23.6	0	0	---	0.00	29.785 
06:15	26.6	26.6	26.6	87	23.3	0	0	---	0.00	29.786 
06:20	26.4	26.4	26.4	88	23.3	0	0	---	0.00	29.786 
06:25	26.6	26.6	26.6	88	23.5	0	0	---	0.00	29.786 
06:30	26.6	26.6	26.6	88	23.5	0	0	---	0.00	29.791 
06:35	26.4	26.4	26.4	88	23.3	0	0	---	0.00	29.791 
06:40	26.3	26.3	26.3	88	23.2	0	0	---	0.00	29.791 
06:45	26.1	26.1	26.1	88	23.0	0	0	---	0.00	29.795 
06:50	26.1	26.1	26.1	88	23.0	0	0	---	0.00	29.795 
06:55	25.8	25.8	25.8	88	22.7	0	0	---	0.00	29.795 
07:00	25.7	25.7	25.7	88	22.6	0	0	---	0.00	29.792 
07:05	25.4	25.4	25.4	89	22.6	0	0	---	0.00	29.792 
07:10	25.4	25.4	25.4	89	22.6	0	0	---	0.00	29.792 
07:15	25.3	25.3	25.3	89	22.5	0	0	---	0.00	29.800 
07:20	25.0	25.0	25.0	89	22.2	0	0	---	0.00	29.800 
07:25	24.8	24.8	24.8	89	22.0	0	0	---	0.00	29.800 
07:30	24.8	24.8	24.8	89	22.0	0	0	---	0.00	29.803 
07:35	24.8	24.8	24.8	89	22.0	0	0	---	0.00	29.803 
07:40	24.8	24.8	24.8	90	22.3	0	0	---	0.00	29.803 
07:45	24.8	24.8	24.8	90	22.3	0	0	---	0.00	29.800 
07:50	24.7	24.7	24.7	90	22.2	0	0	---	0.00	29.800 
07:55	24.8	24.8	24.8	90	22.3	0	0	---	0.00	29.800 
08:00	24.7	24.7	24.7	90	22.2	0	0	---	0.00	29.801 
08:05	24.7	24.7	24.7	90	22.2	0	1	270	0.00	29.801 
08:10	24.7	24.7	24.7	91	22.5	0	1	270	0.00	29.801 
08:15	24.8	24.8	24.8	91	22.6	0	0	---	0.00	29.804 
08:20	24.7	24.7	24.7	91	22.5	0	0	---	0.00	29.804 
08:25	24.7	24.7	24.7	91	22.5	0	0	---	0.00	29.804 
08:30	24.7	24.7	24.7	91	22.5	0	0	---	0.00	29.810 
08:35	24.8	24.8	24.8	91	22.6	0	0	---	0.00	29.810 
08:40	25.0	25.0	25.0	91	22.8	0	1	270	0.00	29.810 
08:45	25.3	25.3	25.3	91	23.0	0	2	270	0.00	29.815 
08:50	25.4	25.4	25.4	91	23.1	0	0	---	0.00	29.815 
08:55	25.6	25.6	25.6	91	23.3	0	1	270	0.00	29.815 
09:00	25.7	25.7	25.7	91	23.4	0	1	270	0.00	29.817 
09:05	25.8	25.8	25.8	91	23.5	0	1	270	0.00	29.817 
09:10	26.0	26.0	26.0	91	23.7	0	1	270	0.00	29.817 
09:15	26.3	26.3	26.3	91	24.0	0	0	---	0.00	29.817 
09:20	26.4	26.4	26.4	91	24.1	0	1	270	0.00	29.817 
09:25	26.6	26.6	26.6	91	24.3	0	2	270	0.00	29.817 
09:30	26.9	26.9	26.9	91	24.6	0	1	270	0.00	29.809 
09:35	27.2	27.2	27.2	91	24.9	0	2	270	0.00	29.809 
09:40	27.6	27.6	27.6	90	25.1	1	3	270	0.00	29.809 
09:45	28.1	28.1	28.1	89	25.3	0	2	270	0.00	29.802 
09:50	28.5	28.5	28.5	88	25.4	1	3	270	0.00	29.802 
09:55	28.5	28.5	28.5	87	25.1	1	3	270	0.00	29.802 
10:00	28.7	28.7	28.7	86	25.1	1	3	68	0.00	29.801 
10:05	29.0	29.0	29.0	86	25.3	0	3	68	0.00	29.801 
10:10	29.3	29.3	29.3	85	25.4	0	3	68	0.00	29.801 
10:15	29.4	29.4	29.4	83	24.9	2	4	90	0.00	29.800 
10:20	29.7	29.7	29.7	83	25.2	1	4	90	0.00	29.800 
10:25	30.0	30.0	30.0	81	24.9	1	5	135	0.00	29.800 
10:30	30.3	30.3	30.3	81	25.2	1	4	90	0.00	29.799 
10:35	30.6	30.6	30.6	81	25.5	0	3	90	0.00	29.799 
10:40	30.9	30.9	30.9	80	25.5	1	4	90	0.00	29.799 
10:45	31.0	31.0	31.0	78	25.0	2	4	90	0.00	29.797 
10:50	31.3	31.3	31.3	77	24.9	3	7	90	0.00	29.797 
10:55	31.5	31.5	31.5	77	25.1	2	6	90	0.00	29.797 
11:00	31.8	31.8	31.8	77	25.4	1	5	112	0.00	29.791 
11:05	31.9	31.9	31.9	76	25.2	2	5	112	0.00	29.791 
11:10	32.2	32.2	32.2	76	25.5	1	5	90	0.00	29.791 
11:15	32.5	32.5	32.5	73	24.8	1	4	90	0.00	29.798 
11:20	32.8	32.8	32.8	74	25.4	0	2	90	0.00	29.798 
11:25	33.1	33.1	33.1	73	25.4	0	4	68	0.00	29.798 
11:30	33.2	33.2	33.2	72	25.2	1	3	270	0.00	29.798 
11:35	33.4	33.4	33.4	71	25.0	1	3	68	0.00	29.798 
11:40	33.5	33.5	33.5	70	24.8	1	4	90	0.00	29.798 
11:45	33.8	33.8	33.8	71	25.4	1	5	90	0.00	29.784 
11:50	34.0	34.0	34.0	70	25.3	0	3	90	0.00	29.784 
11:55	34.4	34.4	34.4	69	25.3	1	4	90	0.00	29.784 
12:00	34.7	34.7	34.7	68	25.2	1	6	90	0.00	29.781 
12:05	35.0	35.0	35.0	66	24.8	1	4	90	0.00	29.781 
12:10	35.3	35.3	35.3	65	24.7	1	3	90	0.00	29.781 
12:15	35.6	35.6	35.6	65	25.0	2	5	90	0.00	29.770 
12:20	35.9	35.9	35.9	64	24.9	1	5	90	0.00	29.770 
12:25	35.9	35.9	35.9	63	24.5	1	6	90	0.00	29.770 
12:30	36.0	36.0	36.0	61	23.9	2	4	112	0.00	29.755 
12:35	36.2	36.2	36.2	63	24.8	1	4	112	0.00	29.755 
12:40	36.5	36.5	36.5	61	24.3	2	7	112	0.00	29.755 
12:45	36.9	36.9	36.9	59	23.9	2	6	90	0.00	29.748 
12:50	37.0	37.0	37.0	60	24.4	2	6	90	0.00	29.748 
12:55	37.0	37.0	37.0	61	24.8	2	6	90	0.00	29.748 
13:00	37.3	37.3	37.3	60	24.7	1	4	90	0.00	29.735 
13:05	37.6	37.6	37.6	60	25.0	1	4	90	0.00	29.735 
13:10	37.9	37.9	37.9	59	24.9	2	4	90	0.00	29.735 
13:15	38.0	38.0	38.0	58	24.6	2	5	112	0.00	29.725 
13:20	38.0	38.0	38.0	57	24.1	2	5	112	0.00	29.725 
13:25	37.9	37.9	37.9	57	24.0	2	6	90	0.00	29.725 
13:30	37.9	37.9	37.9	57	24.0	2	7	90	0.00	29.720 
13:35	38.0	38.0	38.0	57	24.1	2	5	90	0.00	29.720 
13:40	38.3	38.3	38.3	56	24.0	2	5	112	0.00	29.720 
13:45	38.6	38.6	38.6	58	25.1	1	4	112	0.00	29.714 
13:50	38.8	38.8	38.8	56	24.5	3	6	112	0.00	29.714 
13:55	39.1	39.1	39.1	54	23.9	3	9	90	0.00	29.714 
14:00	39.1	39.1	39.1	54	23.9	3	10	90	0.00	29.697 
14:05	39.1	39.1	39.1	55	24.3	3	9	90	0.00	29.697 
14:10	38.9	38.9	38.9	55	24.1	2	5	90	0.00	29.697 
14:15	38.9	38.9	38.9	56	24.6	2	4	112	0.00	29.697 
14:20	39.1	39.1	39.1	56	24.7	1	4	112	0.00	29.697 
14:25	39.2	39.2	39.2	55	24.4	1	6	112	0.00	29.697 
14:30	39.2	39.2	39.2	53	23.5	2	7	90	0.00	29.700 
14:35	39.3	39.3	39.3	54	24.1	1	4	90	0.00	29.700 
14:40	39.3	39.3	39.3	55	24.5	1	3	90	0.00	29.700 
14:45	39.5	39.5	39.5	54	24.2	2	5	90	0.00	29.696 
14:50	39.5	39.5	39.5	53	23.8	2	7	112	0.00	29.696 
14:55	39.6	39.6	39.6	54	24.3	2	7	90	0.00	29.696 
15:00	39.6	39.6	39.6	54	24.3	2	5	112	0.00	29.689 
15:05	39.6	39.6	39.6	54	24.3	2	5	90	0.00	29.689 
15:10	39.6	39.6	39.6	54	24.3	2	6	112	0.00	29.689 
15:15	39.6	39.6	39.6	55	24.8	1	5	112	0.00	29.697 
15:20	39.6	39.6	39.6	55	24.8	1	4	112	0.00	29.697 
15:25	39.6	39.6	39.6	56	25.2	1	3	90	0.00	29.697 
15:30	39.6	39.6	39.6	56	25.2	0	3	90	0.00	29.700 
15:35	39.6	39.6	39.6	56	25.2	1	4	22	0.00	29.700 
15:40	39.5	39.5	39.5	56	25.1	1	5	45	0.00	29.700 
15:45	39.5	36.7	39.5	60	26.8	4	12	270	0.00	29.717 
15:50	38.9	38.9	38.9	63	27.4	3	7	248	0.00	29.717 
15:55	38.6	38.6	38.6	65	27.9	2	6	248	0.00	29.717 
16:00	38.2	38.2	38.2	67	28.2	2	9	248	0.00	29.717 
16:05	37.9	37.9	37.9	68	28.3	1	5	248	0.00	29.717 
16:10	37.9	37.9	37.9	68	28.3	1	4	248	0.00	29.717 
16:15	37.9	37.9	37.9	68	28.3	0	4	248	0.00	29.712 
16:20	37.9	37.9	37.9	67	27.9	0	1	248	0.00	29.712 
16:25	37.9	37.9	37.9	67	27.9	0	2	248	0.00	29.712 
16:30	38.0	38.0	38.0	66	27.7	0	1	248	0.00	29.707 
16:35	38.0	38.0	38.0	65	27.3	0	3	248	0.00	29.707 
16:40	38.3	38.3	38.3	67	28.3	1	6	248	0.00	29.707 
16:45	38.3	38.3	38.3	69	29.0	2	6	248	0.00	29.722 
16:50	38.3	38.3	38.3	70	29.4	1	7	248	0.00	29.722 
16:55	38.3	38.3	38.3	71	29.7	1	6	248	0.00	29.722 
17:00	38.2	38.2	38.2	72	30.0	1	4	248	0.00	29.725 
17:05	37.8	37.8	37.8	75	30.6	2	7	248	0.00	29.725 
17:10	37.3	37.3	37.3	78	31.1	3	9	248	0.00	29.725 
17:15	36.9	36.9	36.9	80	31.3	2	4	248	0.00	29.737 
17:20	36.5	36.5	36.5	81	31.2	2	6	248	0.00	29.737 
17:25	36.2	36.2	36.2	82	31.2	2	5	248	0.00	29.737 
17:30	36.0	36.0	36.0	84	31.6	1	5	248	0.00	29.738 
17:35	35.8	35.8	35.8	84	31.4	3	8	248	0.00	29.738 
17:40	35.6	35.6	35.6	84	31.3	2	6	248	0.00	29.738 
17:45	35.6	35.6	35.6	84	31.3	2	6	248	0.00	29.739 
17:50	35.5	35.5	35.5	84	31.2	2	6	225	0.00	29.739 
17:55	35.5	35.5	35.5	85	31.4	3	8	248	0.00	29.739 
18:00	35.3	35.3	35.3	85	31.2	2	5	248	0.00	29.750 
18:05	35.3	35.3	35.3	85	31.2	2	10	248	0.00	29.750 
18:10	35.2	31.8	35.2	85	31.2	4	12	248	0.00	29.750 
18:15	35.0	35.0	35.0	85	31.0	3	10	248	0.00	29.759 
18:20	34.9	31.4	34.9	85	30.9	4	9	248	0.00	29.759 
18:25	34.7	34.7	34.7	85	30.7	3	7	270	0.00	29.759 
18:30	34.6	34.6	34.6	84	30.3	3	7	248	0.00	29.761 
18:35	34.4	34.4	34.4	82	29.5	3	9	248	0.00	29.761 
18:40	34.4	34.4	34.4	80	28.9	3	5	248	0.00	29.761 
18:45	34.4	34.4	34.4	79	28.6	2	8	270	0.00	29.769 
18:50	34.3	34.3	34.3	77	27.9	3	9	248	0.00	29.769 
18:55	34.1	30.5	34.1	75	27.0	4	10	248	0.00	29.769 
19:00	34.0	30.4	34.0	74	26.6	4	9	248	0.00	29.776 
19:05	33.7	33.7	33.7	73	26.0	3	9	248	0.00	29.776 
19:10	33.7	33.7	33.7	73	26.0	3	7	270	0.00	29.776 
19:15	33.5	29.8	33.5	69	24.4	4	11	248	0.00	29.791 
19:20	33.5	33.5	33.5	71	25.1	3	11	248	0.00	29.791 
19:25	33.2	29.5	33.2	70	24.5	4	14	248	0.00	29.791 
19:30	32.7	28.9	32.7	68	23.3	4	11	270	0.00	29.807 
19:35	32.2	28.3	32.2	68	22.8	4	9	270	0.00	29.807 
19:40	32.1	28.2	32.1	67	22.4	4	11	270	0.00	29.807 
19:45	31.9	31.9	31.9	68	22.6	3	7	270	0.00	29.817 
19:50	31.8	27.8	31.8	67	22.1	4	10	248	0.00	29.817 
19:55	31.8	31.8	31.8	66	21.8	3	6	270	0.00	29.817 
20:00	31.8	31.8	31.8	67	22.1	2	7	248	0.00	29.826 
20:05	31.8	31.8	31.8	67	22.1	1	4	248	0.00	29.826 
20:10	31.8	31.8	31.8	68	22.5	2	6	248	0.00	29.826 
20:15	31.8	31.8	31.8	69	22.8	3	7	248	0.00	29.824 
20:20	31.8	31.8	31.8	69	22.8	2	7	248	0.00	29.824 
20:25	31.8	31.8	31.8	70	23.2	3	10	248	0.00	29.824 
20:30	31.5	27.5	31.5	68	22.2	4	10	270	0.00	29.833 
20:35	31.3	27.3	31.3	65	20.9	4	9	270	0.00	29.833 
20:40	31.2	31.2	31.2	65	20.8	3	10	270	0.00	29.833 
20:45	30.9	25.8	30.9	63	19.8	5	10	270	0.00	29.838 
20:50	30.7	26.6	30.7	62	19.2	4	11	270	0.00	29.838 
20:55	30.7	26.6	30.7	62	19.2	4	11	270	0.00	29.838 
21:00	30.6	30.6	30.6	62	19.2	3	9	270	0.00	29.840 
21:05	30.6	26.5	30.6	62	19.2	4	12	270	0.00	29.840 
21:10	30.4	26.2	30.4	61	18.6	4	12	270	0.00	29.840 
21:15	30.3	30.3	30.3	60	18.1	3	9	248	0.00	29.839 
21:20	30.3	30.3	30.3	60	18.1	3	6	270	0.00	29.839 
21:25	30.3	26.1	30.3	61	18.5	4	12	270	0.00	29.839 
21:30	30.3	30.3	30.3	61	18.5	3	10	248	0.00	29.839 
21:35	30.3	26.1	30.3	61	18.5	4	9	270	0.00	29.839 
21:40	30.3	30.3	30.3	62	18.9	3	12	270	0.00	29.839 
21:45	30.3	30.3	30.3	62	18.9	2	6	270	0.00	29.838 
21:50	30.1	30.1	30.1	63	19.0	2	5	270	0.00	29.838 
21:55	30.3	30.3	30.3	64	19.6	2	5	270	0.00	29.838 
22:00	30.1	30.1	30.1	64	19.4	3	7	270	0.00	29.840 
22:05	30.1	25.9	30.1	62	18.7	4	10	270	0.00	29.840 
22:10	29.8	24.5	29.8	60	17.6	5	14	270	0.00	29.840 
22:15	29.7	24.4	29.7	60	17.5	5	11	248	0.00	29.837 
22:20	29.5	29.5	29.5	61	17.7	3	9	270	0.00	29.837 
22:25	29.5	25.2	29.5	61	17.7	4	10	248	0.00	29.837 
22:30	29.4	29.4	29.4	61	17.6	2	7	248	0.00	29.838 
22:35	29.4	29.4	29.4	62	18.0	3	7	248	0.00	29.838 
22:40	29.3	29.3	29.3	62	17.9	3	10	248	0.00	29.838 
22:45	29.1	24.7	29.1	62	17.7	4	10	248	0.00	29.840 
22:50	29.1	29.1	29.1	62	17.7	3	9	270	0.00	29.840 
22:55	29.0	23.6	29.0	61	17.3	5	14	270	0.00	29.840 
23:00	28.8	28.8	28.8	61	17.1	3	9	248	0.00	29.841 
23:05	28.7	24.3	28.7	61	17.0	4	10	248	0.00	29.841 
23:10	28.7	28.7	28.7	62	17.4	3	11	248	0.00	29.841 
23:15	28.5	24.0	28.5	62	17.2	4	11	248	0.00	29.836 
23:20	28.4	22.8	28.4	61	16.7	5	14	248	0.00	29.836 
23:25	28.2	22.6	28.2	61	16.5	5	10	270	0.00	29.836 
23:30	28.2	28.2	28.2	62	16.9	2	6	248	0.00	29.836 
23:35	28.2	23.7	28.2	61	16.5	4	10	248	0.00	29.836 
23:40	28.1	22.5	28.1	62	16.8	5	12	270	0.00	29.836 
23:45	28.1	23.6	28.1	62	16.8	4	11	248	0.00	29.836 
23:50	28.1	23.6	28.1	62	16.8	4	7	248	0.00	29.836 
23:55	27.9	27.9	27.9	63	17.0	3	9	270	0.00	29.836 

CoCoRaHS
IN-AL-39
A2 Web Hosting
Creative Commons License
GoDaddy
search engine by freefind advanced

loaded 2018-11-14 03:35:17 • last modified 2010-11-18 10:43:29
Privacy PolicyDisclaimer
• wx.awcolley.com is powered by PmWiki v.2002016 •
• all content (unless otherwise noted) © 2018 A W Colley